createdAt,value
2024-01-06T00:01:25.750Z,99950.61
2024-01-06T00:04:38.256Z,99950.94
2024-01-06T00:07:29.765Z,99947.80
2024-01-06T00:10:23.607Z,99952.66
2024-01-06T00:13:15.376Z,99952.67
2024-01-06T00:16:05.352Z,99953.52
2024-01-06T00:18:54.927Z,99949.84
2024-01-06T00:21:45.875Z,99953.05
2024-01-06T00:24:36.795Z,99953.30
2024-01-06T00:27:29.404Z,99954.02
2024-01-06T00:30:18.832Z,99964.90
2024-01-06T00:33:13.802Z,99971.18
2024-01-06T00:36:04.073Z,99972.98
2024-01-06T00:38:53.214Z,99977.13
2024-01-06T00:41:43.057Z,99978.58
2024-01-06T00:44:35.567Z,99967.98
2024-01-06T00:47:25.316Z,99958.36
2024-01-06T00:50:23.644Z,99952.05
2024-01-06T00:53:13.403Z,99945.30
2024-01-06T00:56:07.308Z,99938.77
2024-01-06T00:59:07.971Z,99932.90
2024-01-06T01:01:58.664Z,99930.98
2024-01-06T01:04:42.363Z,99927.61
2024-01-06T01:07:31.799Z,99920.80
2024-01-06T01:10:24.649Z,99922.38
2024-01-06T01:13:14.007Z,99921.62
2024-01-06T01:16:06.132Z,99922.40
2024-01-06T01:18:58.758Z,99917.15
2024-01-06T01:21:55.992Z,99928.44
2024-01-06T01:24:45.250Z,99933.48
2024-01-06T01:27:37.006Z,99938.02
2024-01-06T01:30:40.658Z,99936.75
2024-01-06T01:33:34.442Z,99937.02
2024-01-06T01:36:29.505Z,99936.77
2024-01-06T01:39:18.987Z,99942.61
2024-01-06T01:42:17.403Z,99939.21
2024-01-06T01:44:59.551Z,99936.11
2024-01-06T01:47:56.086Z,99938.45
2024-01-06T01:50:47.613Z,99939.50
2024-01-06T01:53:37.796Z,99943.59
2024-01-06T01:56:34.583Z,99947.42
2024-01-06T01:59:23.595Z,99944.77
2024-01-06T02:03:05.438Z,99943.08
2024-01-06T02:05:39.643Z,99933.42
2024-01-06T02:08:30.493Z,99931.12
2024-01-06T02:11:22.890Z,99931.05
2024-01-06T02:14:12.236Z,99927.37
2024-01-06T02:17:02.085Z,99930.59
2024-01-06T02:19:51.416Z,99929.69
2024-01-06T02:22:41.171Z,99925.45
2024-01-06T02:25:32.288Z,99920.64
2024-01-06T02:28:23.763Z,99914.42
2024-01-06T02:31:16.487Z,99908.98
2024-01-06T02:34:08.920Z,99902.08
2024-01-06T02:37:06.842Z,99898.45
2024-01-06T02:39:58.986Z,99902.37
2024-01-06T02:42:51.328Z,99907.72
2024-01-06T02:45:45.002Z,99901.74
2024-01-06T02:48:34.498Z,99910.06
2024-01-06T02:51:25.556Z,99916.91
2024-01-06T02:54:21.149Z,99917.05
2024-01-06T02:57:09.332Z,99912.31
2024-01-06T03:00:02.229Z,99905.71
2024-01-06T03:02:51.775Z,99906.14
2024-01-06T03:05:43.265Z,99905.31
2024-01-06T03:08:37.228Z,99906.81
2024-01-06T03:11:16.908Z,99907.60
2024-01-06T03:14:07.266Z,99903.27
2024-01-06T03:16:59.305Z,99907.00
2024-01-06T03:19:49.129Z,99908.55
2024-01-06T03:22:39.595Z,99905.35
2024-01-06T03:25:32.244Z,99898.77
2024-01-06T03:28:22.213Z,99897.24
2024-01-06T03:31:13.182Z,99897.27
2024-01-06T03:35:04.941Z,99900.49
2024-01-06T03:37:14.774Z,99905.16
2024-01-06T03:40:10.134Z,99904.11
2024-01-06T03:43:02.181Z,99901.47
2024-01-06T03:45:51.652Z,99896.37
2024-01-06T03:48:41.390Z,99895.11
2024-01-06T03:51:38.475Z,99895.13
2024-01-06T03:54:27.957Z,99899.55
2024-01-06T03:57:19.624Z,99907.59
2024-01-06T04:00:28.807Z,99904.06
2024-01-06T04:03:22.406Z,99912.72
2024-01-06T04:06:12.044Z,99922.31
2024-01-06T04:09:02.609Z,99928.94
2024-01-06T04:12:02.805Z,99924.96
2024-01-06T04:14:52.362Z,99922.70
2024-01-06T04:17:41.816Z,99920.22
2024-01-06T04:20:33.678Z,99914.95
2024-01-06T04:23:26.102Z,99914.14
2024-01-06T04:26:19.523Z,99917.48
2024-01-06T04:29:09.082Z,99917.23
2024-01-06T04:32:00.960Z,99916.70
2024-01-06T04:34:51.648Z,99918.69
2024-01-06T04:37:41.319Z,99917.63
2024-01-06T04:40:32.424Z,99922.30
2024-01-06T04:43:22.797Z,99922.71
2024-01-06T04:46:40.720Z,99921.72
2024-01-06T04:49:34.896Z,99920.91
2024-01-06T04:52:24.179Z,99927.59
2024-01-06T04:55:13.368Z,99925.38
2024-01-06T04:58:02.864Z,99925.17
2024-01-06T05:00:54.095Z,99922.94
2024-01-06T05:03:32.849Z,99919.57
2024-01-06T05:06:52.244Z,99913.41
2024-01-06T05:09:41.397Z,99917.59
2024-01-06T05:12:36.910Z,99916.06
2024-01-06T05:15:26.347Z,99916.66
2024-01-06T05:18:15.718Z,99918.59
2024-01-06T05:21:05.820Z,99917.66
2024-01-06T05:23:55.392Z,99926.36
2024-01-06T05:26:44.715Z,99931.77
2024-01-06T05:29:35.413Z,99925.46
2024-01-06T05:32:27.245Z,99920.58
2024-01-06T05:35:17.619Z,99930.95
2024-01-06T05:38:16.017Z,99935.77
2024-01-06T05:41:07.768Z,99937.16
2024-01-06T05:43:59.016Z,99939.83
2024-01-06T05:46:52.121Z,99939.22
2024-01-06T05:49:44.637Z,99935.14
2024-01-06T05:52:34.062Z,99936.39
2024-01-06T05:55:42.804Z,99938.21
2024-01-06T05:58:32.328Z,99942.98
2024-01-06T06:01:23.878Z,99948.09
2024-01-06T06:04:59.869Z,99948.76
2024-01-06T06:07:30.395Z,99949.73
2024-01-06T06:10:22.577Z,99958.09
2024-01-06T06:13:14.969Z,99963.73
2024-01-06T06:16:06.014Z,99961.73
2024-01-06T06:19:19.950Z,99964.84
2024-01-06T06:22:10.340Z,99979.31
2024-01-06T06:25:11.953Z,99986.20
2024-01-06T06:28:17.402Z,99982.30
2024-01-06T06:31:30.398Z,99983.09
2024-01-06T06:34:27.028Z,99990.80
2024-01-06T06:37:16.885Z,99993.17
2024-01-06T06:40:09.116Z,100003.55
2024-01-06T06:42:58.288Z,100006.23
2024-01-06T06:45:47.870Z,100010.89
2024-01-06T06:48:37.156Z,100018.39
2024-01-06T06:52:16.784Z,100018.88
2024-01-06T06:54:43.603Z,100019.28
2024-01-06T06:57:33.266Z,100019.42
2024-01-06T07:00:45.636Z,100015.27
2024-01-06T07:03:35.462Z,100018.23
2024-01-06T07:06:32.956Z,100019.13
2024-01-06T07:09:24.008Z,100018.13
2024-01-06T07:12:20.133Z,100011.65
2024-01-06T07:15:11.948Z,100011.55
2024-01-06T07:18:01.229Z,100009.45
2024-01-06T07:20:53.387Z,100007.95
2024-01-06T07:23:43.663Z,100002.89
2024-01-06T07:26:35.643Z,100001.30
2024-01-06T07:29:24.854Z,100004.51
2024-01-06T07:32:14.596Z,100012.06
2024-01-06T07:35:07.459Z,100015.87
2024-01-06T07:37:57.959Z,100025.91
2024-01-06T07:40:47.180Z,100033.65
2024-01-06T07:43:36.641Z,100045.16
2024-01-06T07:46:33.087Z,100050.05
2024-01-06T07:49:11.595Z,100053.67
2024-01-06T07:52:03.392Z,100056.22
2024-01-06T07:54:55.456Z,100059.39
2024-01-06T07:57:44.788Z,100059.34
2024-01-06T08:00:45.854Z,100052.70
2024-01-06T08:03:35.564Z,100053.80
2024-01-06T08:06:34.701Z,100050.27
2024-01-06T08:09:24.413Z,100053.39
2024-01-06T08:12:13.084Z,100050.38
2024-01-06T08:15:06.353Z,100052.30
2024-01-06T08:17:59.026Z,100053.81
2024-01-06T08:20:48.222Z,100051.33
2024-01-06T08:23:37.820Z,100053.58
2024-01-06T08:26:33.282Z,100056.18
2024-01-06T08:29:29.216Z,100058.17
2024-01-06T08:32:18.532Z,100065.06
2024-01-06T08:35:10.722Z,100073.94
2024-01-06T08:38:01.976Z,100074.06
2024-01-06T08:40:52.246Z,100074.45
2024-01-06T08:43:40.574Z,100077.64
2024-01-06T08:46:53.703Z,100081.98
2024-01-06T08:49:43.781Z,100091.55
2024-01-06T08:52:32.430Z,100091.52
2024-01-06T08:55:32.124Z,100098.86
2024-01-06T08:58:14.052Z,100100.92
2024-01-06T09:01:04.356Z,100108.19
2024-01-06T09:04:00.619Z,100110.34
2024-01-06T09:06:49.478Z,100114.18
2024-01-06T09:09:38.227Z,100115.75
2024-01-06T09:12:28.133Z,100115.96
2024-01-06T09:15:16.871Z,100118.77
2024-01-06T09:18:08.123Z,100120.17
2024-01-06T09:21:00.410Z,100116.29
2024-01-06T09:23:44.413Z,100115.23
2024-01-06T09:26:37.174Z,100114.06
2024-01-06T09:29:28.283Z,100112.94
2024-01-06T09:32:17.484Z,100113.95
2024-01-06T09:35:06.871Z,100114.11
2024-01-06T09:37:51.714Z,100111.45
2024-01-06T09:40:32.690Z,100111.29
2024-01-06T09:43:36.803Z,100110.78
2024-01-06T09:46:32.402Z,100112.13
2024-01-06T09:49:24.744Z,100113.86
2024-01-06T09:52:22.144Z,100113.80
2024-01-06T09:55:12.047Z,100111.69
2024-01-06T09:58:17.682Z,100111.00
2024-01-06T10:00:59.793Z,100112.90
2024-01-06T10:04:25.116Z,100113.15
2024-01-06T10:07:14.344Z,100117.19
2024-01-06T10:10:03.774Z,100122.65
2024-01-06T10:12:54.206Z,100122.77
2024-01-06T10:15:47.050Z,100124.89
2024-01-06T10:18:36.423Z,100129.03
2024-01-06T10:21:26.752Z,100134.11
2024-01-06T10:24:36.200Z,100136.13
2024-01-06T10:27:24.726Z,100133.39
2024-01-06T10:30:15.131Z,100131.29
2024-01-06T10:33:44.332Z,100133.60
2024-01-06T10:36:34.052Z,100135.38
2024-01-06T10:39:23.036Z,100137.23
2024-01-06T10:42:15.521Z,100140.80
2024-01-06T10:45:10.253Z,100140.99
2024-01-06T10:47:56.157Z,100143.53
2024-01-06T10:50:38.783Z,100141.27
2024-01-06T10:53:37.348Z,100138.48
2024-01-06T10:56:26.754Z,100134.35
2024-01-06T10:59:15.871Z,100129.25
2024-01-06T11:02:06.713Z,100122.48
2024-01-06T11:04:55.315Z,100120.45
2024-01-06T11:07:44.563Z,100122.56
2024-01-06T11:10:33.929Z,100120.55
2024-01-06T11:13:26.862Z,100124.12
2024-01-06T11:17:25.641Z,100128.85
2024-01-06T11:19:48.272Z,100127.45
2024-01-06T11:22:40.533Z,100131.10
2024-01-06T11:25:28.400Z,100133.56
2024-01-06T11:28:18.980Z,100137.90
2024-01-06T11:31:10.398Z,100134.05
2024-01-06T11:34:17.331Z,100135.85
2024-01-06T11:37:09.746Z,100132.30
2024-01-06T11:39:57.107Z,100136.94
2024-01-06T11:42:46.994Z,100132.85
2024-01-06T11:45:42.483Z,100134.46
2024-01-06T11:48:38.310Z,100137.20
2024-01-06T11:51:26.995Z,100140.52
2024-01-06T11:54:26.986Z,100143.20
2024-01-06T11:57:06.478Z,100139.72
2024-01-06T11:59:55.389Z,100132.96
2024-01-06T12:03:10.722Z,100135.31
2024-01-06T12:06:05.200Z,100134.21
2024-01-06T12:09:05.597Z,100136.37
2024-01-06T12:12:02.424Z,100134.83
2024-01-06T12:14:50.537Z,100136.38
2024-01-06T12:17:40.512Z,100135.51
2024-01-06T12:20:32.518Z,100135.06
2024-01-06T12:23:28.269Z,100139.41
2024-01-06T12:26:17.474Z,100148.08
2024-01-06T12:29:05.873Z,100149.34
2024-01-06T12:31:54.422Z,100148.23
2024-01-06T12:34:44.439Z,100148.08
2024-01-06T12:37:34.315Z,100145.08
2024-01-06T12:40:24.254Z,100150.45
2024-01-06T12:43:23.859Z,100157.80
2024-01-06T12:46:13.787Z,100167.86
2024-01-06T12:49:04.675Z,100168.72
2024-01-06T12:51:54.894Z,100165.45
2024-01-06T12:54:46.419Z,100165.98
2024-01-06T12:57:36.628Z,100169.23
2024-01-06T13:00:24.986Z,100175.30
2024-01-06T13:03:15.438Z,100180.22
2024-01-06T13:06:04.045Z,100182.85
2024-01-06T13:08:52.582Z,100194.08
2024-01-06T13:11:39.685Z,100202.57
2024-01-06T13:14:32.130Z,100205.49
2024-01-06T13:17:20.516Z,100209.27
2024-01-06T13:20:10.057Z,100210.30
2024-01-06T13:23:00.682Z,100212.64
2024-01-06T13:27:59.225Z,100214.48
2024-01-06T13:30:52.067Z,100214.49
2024-01-06T13:33:46.764Z,100219.95
2024-01-06T13:36:41.325Z,100223.29
2024-01-06T13:39:37.126Z,100226.30
2024-01-06T13:42:32.198Z,100226.86
2024-01-06T13:45:26.724Z,100222.38
2024-01-06T13:48:20.260Z,100223.20
2024-01-06T13:51:12.949Z,100224.15
2024-01-06T13:54:14.223Z,100222.16
2024-01-06T13:57:08.274Z,100228.73
2024-01-06T14:00:08.906Z,100232.33
2024-01-06T14:03:12.570Z,100240.38
2024-01-06T14:06:08.940Z,100242.69
2024-01-06T14:09:14.623Z,100246.70
2024-01-06T14:11:59.707Z,100248.73
2024-01-06T14:14:51.494Z,100250.70
2024-01-06T14:17:51.343Z,100252.48
2024-01-06T14:21:00.866Z,100252.31
2024-01-06T14:23:55.147Z,100253.20
2024-01-06T14:26:47.821Z,100252.34
2024-01-06T14:29:40.951Z,100250.45
2024-01-06T14:32:36.967Z,100257.66
2024-01-06T14:35:52.901Z,100261.36
2024-01-06T14:38:44.861Z,100266.46
2024-01-06T14:41:39.526Z,100268.73
2024-01-06T14:44:34.557Z,100267.04
2024-01-06T14:47:28.722Z,100269.45
2024-01-06T14:50:42.420Z,100268.23
2024-01-06T14:53:39.648Z,100271.20
2024-01-06T14:56:27.555Z,100277.08
2024-01-06T14:59:21.186Z,100283.65
2024-01-06T15:02:06.639Z,100286.71
2024-01-06T15:05:02.237Z,100287.95
2024-01-06T15:07:50.219Z,100286.97
2024-01-06T15:10:43.021Z,100285.77
2024-01-06T15:13:39.167Z,100286.27
2024-01-06T15:16:34.828Z,100292.70
2024-01-06T15:19:32.637Z,100303.39
2024-01-06T15:22:25.708Z,100306.70
2024-01-06T15:25:19.995Z,100310.16
2024-01-06T15:28:21.572Z,100311.72
2024-01-06T15:31:38.447Z,100311.69
2024-01-06T15:34:35.110Z,100321.48
2024-01-06T15:37:37.723Z,100320.72
2024-01-06T15:40:39.547Z,100321.08
2024-01-06T15:43:36.478Z,100328.52
2024-01-06T15:47:30.745Z,100328.88
2024-01-06T15:49:45.109Z,100331.62
2024-01-06T15:52:38.505Z,100334.07
2024-01-06T15:55:32.231Z,100334.17
2024-01-06T15:58:48.877Z,100331.63
2024-01-06T16:01:54.919Z,100334.95
2024-01-06T16:04:49.085Z,100337.11
2024-01-06T16:07:41.849Z,100341.34
2024-01-06T16:10:42.941Z,100347.16
2024-01-06T16:13:40.053Z,100348.87
2024-01-06T16:16:37.345Z,100351.48
2024-01-06T16:20:21.183Z,100357.64
2024-01-06T16:22:43.896Z,100359.91
2024-01-06T16:26:45.092Z,100359.78
2024-01-06T16:28:58.743Z,100361.78
2024-01-06T16:31:52.214Z,100360.69
2024-01-06T16:34:43.890Z,100369.00
2024-01-06T16:37:39.842Z,100364.61
2024-01-06T16:40:33.473Z,100370.73
2024-01-06T16:43:24.905Z,100367.34
2024-01-06T16:47:15.153Z,100369.64
2024-01-06T16:49:43.133Z,100381.23
2024-01-06T16:52:39.399Z,100385.66
2024-01-06T16:55:32.580Z,100390.05
2024-01-06T16:58:42.356Z,100398.73
2024-01-06T17:01:28.625Z,100403.11
2024-01-06T17:04:21.518Z,100399.89
2024-01-06T17:08:15.884Z,100409.61
2024-01-06T17:10:33.802Z,100414.95
2024-01-06T17:13:27.198Z,100418.58
2024-01-06T17:16:53.277Z,100424.08
2024-01-06T17:19:39.930Z,100425.86
2024-01-06T17:22:46.504Z,100430.16
2024-01-06T17:25:42.164Z,100437.35
2024-01-06T17:28:57.713Z,100431.90
2024-01-06T17:31:51.212Z,100427.16
2024-01-06T17:34:46.650Z,100431.91
2024-01-06T17:37:40.588Z,100436.81
2024-01-06T17:40:26.669Z,100438.48
2024-01-06T17:43:20.930Z,100441.79
2024-01-06T17:46:10.048Z,100438.67
2024-01-06T17:49:05.022Z,100440.34
2024-01-06T17:51:58.500Z,100439.16
2024-01-06T17:54:45.441Z,100440.75
2024-01-06T17:57:40.694Z,100440.77
2024-01-06T18:00:47.455Z,100437.85
2024-01-06T18:03:32.242Z,100433.64
2024-01-06T18:06:34.980Z,100431.27
2024-01-06T18:09:11.143Z,100435.64
2024-01-06T18:12:14.173Z,100435.28
2024-01-06T18:14:57.891Z,100435.13
2024-01-06T18:17:44.534Z,100438.86
2024-01-06T18:20:50.272Z,100437.23
2024-01-06T18:23:44.712Z,100444.00
2024-01-06T18:26:28.824Z,100453.23
2024-01-06T18:29:14.466Z,100453.66
2024-01-06T18:32:13.464Z,100457.92
2024-01-06T18:34:56.941Z,100456.73
2024-01-06T18:37:42.778Z,100458.26
2024-01-06T18:40:39.624Z,100460.70
2024-01-06T18:43:41.150Z,100460.45
2024-01-06T18:46:44.363Z,100462.48
2024-01-06T18:49:27.142Z,100465.70
2024-01-06T18:52:14.297Z,100469.36
2024-01-06T18:55:08.285Z,100468.92
2024-01-06T18:57:56.800Z,100470.30
2024-01-06T19:00:50.658Z,100476.35
2024-01-06T19:04:07.508Z,100480.18
2024-01-06T19:07:00.509Z,100482.82
2024-01-06T19:09:53.540Z,100490.27
2024-01-06T19:12:49.746Z,100490.73
2024-01-06T19:15:56.474Z,100492.41
2024-01-06T19:18:47.618Z,100495.11
2024-01-06T19:21:40.152Z,100498.64
2024-01-06T19:24:43.419Z,100500.25
2024-01-06T19:27:34.658Z,100500.98
2024-01-06T19:30:28.893Z,100496.65
2024-01-06T19:33:33.534Z,100499.46
2024-01-06T19:36:35.613Z,100498.33
2024-01-06T19:39:30.604Z,100503.18
2024-01-06T19:42:14.468Z,100504.48
2024-01-06T19:45:08.144Z,100503.21
2024-01-06T19:48:28.225Z,100501.02
2024-01-06T19:51:22.485Z,100502.00
2024-01-06T19:54:17.760Z,100496.30
2024-01-06T19:57:17.618Z,100496.04
2024-01-06T20:00:15.487Z,100498.93
2024-01-06T20:03:15.311Z,100500.86
2024-01-06T20:06:21.056Z,100506.64
2024-01-06T20:09:14.391Z,100506.83
2024-01-06T20:12:13.283Z,100506.47
2024-01-06T20:14:49.804Z,100506.23
2024-01-06T20:17:42.582Z,100507.11
2024-01-06T20:20:40.602Z,100506.59
2024-01-06T20:23:43.580Z,100508.67
2024-01-06T20:26:40.123Z,100512.16
2024-01-06T20:29:27.880Z,100512.81
2024-01-06T20:32:21.128Z,100511.89
2024-01-06T20:35:14.282Z,100514.20
2024-01-06T20:38:09.613Z,100513.01
2024-01-06T20:41:02.535Z,100505.84
2024-01-06T20:43:43.726Z,100510.11
2024-01-06T20:46:41.092Z,100511.64
2024-01-06T20:49:34.055Z,100506.56
2024-01-06T20:52:28.336Z,100510.88
2024-01-06T20:55:23.349Z,100513.24
2024-01-06T20:58:18.245Z,100517.64
2024-01-06T21:01:17.197Z,100521.64
2024-01-06T21:04:00.898Z,100518.99
2024-01-06T21:06:54.711Z,100519.52
2024-01-06T21:09:49.561Z,100523.50
2024-01-06T21:12:24.524Z,100517.48
2024-01-06T21:15:09.825Z,100521.14
2024-01-06T21:18:15.685Z,100526.33
2024-01-06T21:20:59.703Z,100528.81
2024-01-06T21:23:53.620Z,100530.89
2024-01-06T21:26:49.358Z,100529.22
2024-01-06T21:29:37.937Z,100529.48
2024-01-06T21:32:38.452Z,100526.27
2024-01-06T21:35:33.249Z,100526.92
2024-01-06T21:38:25.936Z,100533.55
2024-01-06T21:41:18.918Z,100535.52
2024-01-06T21:44:15.575Z,100534.40
2024-01-06T21:47:08.706Z,100529.32
2024-01-06T21:50:03.470Z,100534.27
2024-01-06T21:52:58.653Z,100528.84
2024-01-06T21:55:36.518Z,100528.40
2024-01-06T21:58:37.233Z,100539.00
2024-01-06T22:01:48.987Z,100537.34
2024-01-06T22:04:31.248Z,100537.79
2024-01-06T22:07:35.065Z,100543.70
2024-01-06T22:10:34.098Z,100548.89
2024-01-06T22:13:18.900Z,100546.93
2024-01-06T22:16:12.242Z,100544.80
2024-01-06T22:19:39.905Z,100548.77
2024-01-06T22:22:35.150Z,100550.17
2024-01-06T22:25:29.116Z,100551.45
2024-01-06T22:28:21.594Z,100552.41
2024-01-06T22:31:25.762Z,100557.83
2024-01-06T22:34:19.564Z,100562.38
2024-01-06T22:37:09.988Z,100560.14
2024-01-06T22:39:46.139Z,100565.15
2024-01-06T22:42:38.777Z,100568.82
2024-01-06T22:45:33.914Z,100573.94
2024-01-06T22:48:27.027Z,100569.95
2024-01-06T22:51:21.646Z,100575.39
2024-01-06T22:54:18.498Z,100577.35
2024-01-06T22:57:11.008Z,100580.63
2024-01-06T23:00:17.685Z,100586.46
2024-01-06T23:03:16.050Z,100583.70
2024-01-06T23:06:09.582Z,100587.31
2024-01-06T23:09:08.443Z,100589.72
2024-01-06T23:12:07.959Z,100592.86
2024-01-06T23:15:59.977Z,100595.13
2024-01-06T23:18:18.114Z,100603.02
2024-01-06T23:20:50.822Z,100606.37
2024-01-06T23:23:24.079Z,100608.73
2024-01-06T23:26:08.527Z,100609.40
2024-01-06T23:28:50.018Z,100609.38
2024-01-06T23:31:25.675Z,100609.42
2024-01-06T23:34:26.739Z,100614.48
2024-01-06T23:37:11.467Z,100612.30
2024-01-06T23:40:00.114Z,100617.77
2024-01-06T23:42:54.244Z,100620.13
2024-01-06T23:45:58.501Z,100618.19
2024-01-06T23:48:35.398Z,100618.13
2024-01-06T23:54:30.822Z,100620.30
2024-01-06T23:57:12.626Z,100615.39
